Pag — 9A2798 — position and weather

sailwx.info

Track history (hours):
 
Tides and Currents Weather Stations Pressure Air Temp Water Temp Dewpoint Dewpoint Depression Visibility Wind Speed Wind Dir Waves Ship Positions

Pag

Last reported at 2017-Nov-19 22:09 UTC. Time now 2017-Nov-21 19:34 UTC.
Position N 22°22' E 113°56'.

Length 183 m; draft 9.4 m.

Type: Ship (hazmat cat B). MMSI: 238009000.

Date/timePositionNaut miles runAvg speedWind from/ knotsBaromVisibWave heightAir tempDewpointWater temp
2017-Nov-19 22:09N 22°22' E 113°56'0 0.0
2017-Nov-19 05:03N 22°22' E 113°56'0 0.0
2017-Nov-19 05:00N 22°22' E 113°56'1 2.4
2017-Nov-19 04:30N 22°21' E 113°57'610.4
2017-Nov-19 03:56N 22°21' E 114°03'4 8.7
2017-Nov-19 03:30N 22°18' E 114°06'612.2
2017-Nov-19 03:00N 22°13' E 114°09'4 4.1
2017-Nov-19 01:54N 22°09' E 114°11'5 0.2
2017-Nov-17 23:21N 22°08' E 114°17'411.2
2017-Nov-17 23:00N 22°08' E 114°21'511.0
2017-Nov-17 22:30N 22°07' E 114°27'611.5
2017-Nov-17 22:00N 22°02' E 114°30'611.8
2017-Nov-17 21:30N 21°57' E 114°33'611.9
2017-Nov-17 21:00N 21°51' E 114°35'611.9
2017-Nov-17 20:29N 21°46' E 114°38'1111.9
2017-Nov-17 19:35N 21°36' E 114°43'311.9
2017-Nov-17 19:22N 21°34' E 114°44'411.9
2017-Nov-17 18:59N 21°30' E 114°46'  
Track history (hours):
 
Tides and Currents Weather Stations Pressure Air Temp Water Temp Dewpoint Dewpoint Depression Visibility Wind Speed Wind Dir Waves Ship Positions

Pag

Last reported at 2017-Nov-19 22:09 UTC. Time now 2017-Nov-21 19:34 UTC.
Position N 22°22' E 113°56'.

Length 183 m; draft 9.4 m.

Type: Ship (hazmat cat B). MMSI: 238009000.

Date/timePositionNaut miles runAvg speedWind from/ knotsBaromVisibWave heightAir tempDewpointWater temp
2017-Nov-19 22:09N 22°22' E 113°56'0 0.0
2017-Nov-19 05:03N 22°22' E 113°56'0 0.0
2017-Nov-19 05:00N 22°22' E 113°56'1 2.4
2017-Nov-19 04:30N 22°21' E 113°57'610.4
2017-Nov-19 03:56N 22°21' E 114°03'4 8.7
2017-Nov-19 03:30N 22°18' E 114°06'612.2
2017-Nov-19 03:00N 22°13' E 114°09'4 4.1
2017-Nov-19 01:54N 22°09' E 114°11'5 0.2
2017-Nov-17 23:21N 22°08' E 114°17'411.2
2017-Nov-17 23:00N 22°08' E 114°21'511.0
2017-Nov-17 22:30N 22°07' E 114°27'611.5
2017-Nov-17 22:00N 22°02' E 114°30'611.8
2017-Nov-17 21:30N 21°57' E 114°33'611.9
2017-Nov-17 21:00N 21°51' E 114°35'611.9
2017-Nov-17 20:29N 21°46' E 114°38'1111.9
2017-Nov-17 19:35N 21°36' E 114°43'311.9
2017-Nov-17 19:22N 21°34' E 114°44'411.9
2017-Nov-17 18:59N 21°30' E 114°46'  

Dump ship's entire track history